Time;durP1;ratioP1;P1;durP2;ratioP2;P2;SDS_P1;SDS_P2;PMS_P1;PMS_P2;Temp;Humidity;BMP_temperature;BMP_pressure;BME280_temperature;BME280_humidity;BME280_pressure;Samples;Min_cycle;Max_cycle;Signal;HPM_P1;HPM_P2
2023/06/15 00:02:16;;;;;;;14.32;5.47;;;18.40;99.90;;;;;;5006754;28;20104;-55
2023/06/15 00:04:43;;;;;;;16.35;4.85;;;18.30;99.90;;;;;;5004519;28;20077;-55
2023/06/15 00:07:10;;;;;;;6.53;4.40;;;18.40;99.90;;;;;;5006251;28;20080;-50
2023/06/15 00:09:37;;;;;;;8.45;4.88;;;18.40;99.90;;;;;;5005966;28;20064;-56
2023/06/15 00:12:04;;;;;;;11.18;4.80;;;18.40;99.90;;;;;;5006445;28;20054;-53
2023/06/15 00:14:31;;;;;;;12.68;4.45;;;18.40;99.90;;;;;;4999712;28;20334;-54
2023/06/15 00:16:58;;;;;;;18.23;5.32;;;18.30;99.90;;;;;;5011255;28;20046;-55
2023/06/15 00:19:26;;;;;;;9.07;4.60;;;18.30;99.90;;;;;;5010527;28;20049;-53
2023/06/15 00:21:53;;;;;;;14.02;5.25;;;18.20;99.90;;;;;;5010239;28;20050;-54
2023/06/15 00:24:20;;;;;;;6.85;3.95;;;18.20;99.90;;;;;;5010202;28;20049;-54
2023/06/15 00:26:47;;;;;;;13.23;4.63;;;18.20;99.90;;;;;;5010652;28;20042;-56
2023/06/15 00:29:14;;;;;;;12.30;4.32;;;18.10;99.90;;;;;;5010660;28;20042;-56
2023/06/15 00:31:41;;;;;;;9.30;3.45;;;18.10;99.90;;;;;;4996747;28;20401;-53
2023/06/15 00:34:08;;;;;;;6.05;3.97;;;18.20;99.90;;;;;;5010333;28;20071;-55
2023/06/15 00:36:35;;;;;;;9.32;4.53;;;18.20;99.90;;;;;;5010538;28;20431;-55
2023/06/15 00:39:02;;;;;;;8.50;3.97;;;18.10;99.90;;;;;;5010348;28;20600;-54
2023/06/15 00:41:29;;;;;;;10.95;4.95;;;18.10;99.90;;;;;;5009261;28;20550;-56
2023/06/15 00:43:56;;;;;;;12.90;4.25;;;18.10;99.90;;;;;;5010304;28;20058;-55
2023/06/15 00:46:23;;;;;;;9.50;4.13;;;18.00;99.90;;;;;;5009903;28;20079;-56
2023/06/15 00:48:50;;;;;;;11.68;4.00;;;17.90;99.90;;;;;;5010834;28;20133;-55
2023/06/15 00:51:16;;;;;;;12.52;4.55;;;17.90;99.90;;;;;;4998812;28;20480;-51
2023/06/15 00:53:43;;;;;;;6.68;4.30;;;17.90;99.90;;;;;;5010568;28;20150;-52
2023/06/15 00:56:10;;;;;;;10.35;3.97;;;17.90;99.90;;;;;;5009420;28;20045;-53
2023/06/15 00:58:37;;;;;;;9.45;4.75;;;17.90;99.90;;;;;;5002996;28;20096;-55
2023/06/15 01:01:04;;;;;;;9.25;4.38;;;17.90;99.90;;;;;;4983315;28;20042;-54
2023/06/15 01:03:31;;;;;;;10.32;4.50;;;17.80;99.90;;;;;;5003457;28;20108;-55
2023/06/15 01:05:58;;;;;;;13.73;4.45;;;17.70;99.90;;;;;;5009564;28;20034;-56
2023/06/15 01:08:26;;;;;;;7.40;4.32;;;17.70;99.90;;;;;;5010183;28;20406;-57
2023/06/15 01:10:54;;;;;;;9.68;5.20;;;17.70;99.90;;;;;;5009567;28;20503;-53
2023/06/15 01:13:21;;;;;;;11.98;4.97;;;17.60;99.90;;;;;;5009155;28;20049;-50
2023/06/15 01:15:48;;;;;;;14.20;5.22;;;17.50;99.90;;;;;;4996195;28;20056;-54
2023/06/15 01:18:20;;;;;;;8.80;5.23;;;17.40;99.90;;;;;;4626754;28;9999988;-51
2023/06/15 01:20:48;;;;;;;11.65;5.25;;;17.30;99.90;;;;;;5004891;28;20046;-52
2023/06/15 01:23:29;;;;;;;16.83;5.63;;;17.30;99.90;;;;;;5009199;28;20513;-49
2023/06/15 01:26:06;;;;;;;23.58;7.10;;;17.30;99.90;;;;;;4982713;28;20046;-54
2023/06/15 01:28:45;;;;;;;11.27;5.95;;;17.20;99.90;;;;;;4996487;28;20428;-54
2023/06/15 01:31:12;;;;;;;13.43;5.55;;;17.20;99.90;;;;;;5009070;28;20045;-53
2023/06/15 01:33:46;;;;;;;12.20;5.05;;;17.20;99.90;;;;;;4996459;28;20141;-56
2023/06/15 01:36:13;;;;;;;9.55;5.00;;;17.20;99.90;;;;;;5008950;28;20046;-54
2023/06/15 01:38:40;;;;;;;10.10;5.55;;;17.20;99.90;;;;;;5003518;28;20053;-54
2023/06/15 01:41:07;;;;;;;11.63;5.07;;;17.10;99.90;;;;;;5008560;28;20050;-53
2023/06/15 01:43:35;;;;;;;10.90;5.28;;;17.10;99.90;;;;;;5002958;28;20405;-55
2023/06/15 01:46:02;;;;;;;17.58;6.13;;;17.00;99.90;;;;;;4994597;28;20062;-50
2023/06/15 01:48:29;;;;;;;10.98;5.55;;;17.00;99.90;;;;;;4985028;28;20049;-49
2023/06/15 01:50:56;;;;;;;8.00;5.22;;;16.90;99.90;;;;;;4996970;28;20046;-50
2023/06/15 01:53:23;;;;;;;13.52;6.07;;;16.70;99.90;;;;;;4997674;28;20054;-51
2023/06/15 01:55:50;;;;;;;9.20;5.35;;;16.80;99.90;;;;;;5008253;28;20464;-54
2023/06/15 01:58:17;;;;;;;11.02;5.45;;;16.70;99.90;;;;;;4999233;28;20053;-54
2023/06/15 02:00:44;;;;;;;7.93;5.15;;;16.70;99.90;;;;;;5009287;28;20053;-56
2023/06/15 02:03:11;;;;;;;13.60;5.93;;;16.60;99.90;;;;;;5008525;28;20417;-55
2023/06/15 02:05:39;;;;;;;14.25;6.05;;;16.50;99.90;;;;;;5009186;28;20124;-55
2023/06/15 02:08:10;;;;;;;9.18;5.45;;;16.60;99.90;;;;;;5008494;28;20084;-56
2023/06/15 02:10:37;;;;;;;11.38;5.95;;;16.60;99.90;;;;;;5009034;28;20112;-54
2023/06/15 02:13:08;;;;;;;11.68;5.55;;;16.60;99.90;;;;;;5008503;28;20084;-52
2023/06/15 02:15:36;;;;;;;14.90;6.07;;;16.60;99.90;;;;;;5008982;28;20519;-55
2023/06/15 02:18:12;;;;;;;15.73;5.13;;;16.60;99.90;;;;;;5009511;28;20049;-54
2023/06/15 02:20:40;;;;;;;26.38;7.88;;;16.60;99.90;;;;;;5009377;28;20038;-54
2023/06/15 02:23:07;;;;;;;6.95;4.63;;;16.40;99.90;;;;;;5008664;28;20045;-54
2023/06/15 02:25:34;;;;;;;10.98;5.00;;;16.30;99.90;;;;;;5008505;28;20120;-55
2023/06/15 02:28:01;;;;;;;10.05;4.82;;;16.20;99.90;;;;;;4990751;28;20046;-53
2023/06/15 02:30:28;;;;;;;8.02;5.25;;;16.10;99.90;;;;;;5007694;28;20164;-56
2023/06/15 02:33:00;;;;;;;17.15;6.03;;;16.00;99.90;;;;;;4993507;28;20038;-52
2023/06/15 02:35:27;;;;;;;13.27;5.15;;;16.00;99.90;;;;;;5002365;28;20049;-54
2023/06/15 02:37:55;;;;;;;12.65;5.47;;;16.00;99.90;;;;;;5008740;28;20046;-50
2023/06/15 02:40:22;;;;;;;13.73;5.82;;;16.00;99.90;;;;;;5007865;28;20262;-54
2023/06/15 02:42:49;;;;;;;8.98;4.97;;;16.00;99.90;;;;;;5007903;28;20555;-52
2023/06/15 02:45:18;;;;;;;7.68;5.00;;;15.90;99.90;;;;;;5004142;28;20053;-55
2023/06/15 02:47:47;;;;;;;17.35;5.97;;;15.70;99.90;;;;;;5008257;28;20053;-55
2023/06/15 02:50:14;;;;;;;11.68;5.38;;;15.70;99.90;;;;;;5007295;28;20081;-54
2023/06/15 02:52:45;;;;;;;12.88;5.15;;;15.60;99.90;;;;;;4999629;28;20221;-51
2023/06/15 02:55:13;;;;;;;14.57;5.65;;;15.50;99.90;;;;;;5007327;28;20045;-55
2023/06/15 02:57:41;;;;;;;11.30;5.88;;;15.50;99.90;;;;;;5008156;28;20045;-52
2023/06/15 03:00:12;;;;;;;9.50;5.70;;;15.50;99.90;;;;;;5007262;28;20053;-55
2023/06/15 03:02:39;;;;;;;9.38;5.43;;;15.40;99.90;;;;;;4996928;28;20133;-54
2023/06/15 03:05:07;;;;;;;12.32;5.90;;;15.40;99.90;;;;;;4997007;28;20092;-54
2023/06/15 03:07:34;;;;;;;10.27;5.70;;;15.40;99.90;;;;;;5001838;28;20048;-54
2023/06/15 03:10:01;;;;;;;10.73;5.00;;;15.30;99.90;;;;;;5007726;28;20050;-52
2023/06/15 03:12:28;;;;;;;6.57;4.85;;;15.30;99.90;;;;;;5000811;28;20072;-52
2023/06/15 03:14:56;;;;;;;7.95;5.30;;;15.20;99.90;;;;;;5007694;28;20046;-51
2023/06/15 03:17:24;;;;;;;11.32;6.15;;;15.20;99.90;;;;;;5007474;28;20057;-53
2023/06/15 03:19:51;;;;;;;10.90;5.00;;;15.20;99.90;;;;;;5008176;28;20127;-55
2023/06/15 03:22:19;;;;;;;12.90;5.97;;;15.30;99.90;;;;;;5017969;28;20056;-54
2023/06/15 03:24:49;;;;;;;10.25;5.95;;;15.30;99.90;;;;;;4991146;28;20049;-55
2023/06/15 03:27:16;;;;;;;10.82;5.40;;;15.30;99.90;;;;;;5007171;28;20452;-54
2023/06/15 03:29:49;;;;;;;7.78;5.90;;;15.30;99.90;;;;;;5007752;28;20049;-54
2023/06/15 03:32:19;;;;;;;9.45;5.22;;;15.20;99.90;;;;;;5005109;28;20038;-54
2023/06/15 03:34:45;;;;;;;15.38;5.70;;;15.10;99.90;;;;;;5007277;28;20045;-54
2023/06/15 03:37:13;;;;;;;13.65;6.22;;;15.00;99.90;;;;;;5007523;28;20045;-52
2023/06/15 03:39:40;;;;;;;8.75;5.13;;;15.00;99.90;;;;;;5007690;28;20053;-54
2023/06/15 03:42:07;;;;;;;7.78;4.95;;;14.90;99.90;;;;;;5006623;28;20049;-54
2023/06/15 03:44:34;;;;;;;9.48;5.03;;;14.90;99.90;;;;;;5007180;28;20057;-55
2023/06/15 03:47:01;;;;;;;9.30;5.05;;;14.80;99.90;;;;;;5006733;28;20189;-54
2023/06/15 03:49:27;;;;;;;6.38;4.55;;;14.90;99.90;;;;;;5009814;28;20054;-56
2023/06/15 03:51:55;;;;;;;10.98;5.00;;;14.90;99.90;;;;;;5009643;28;20041;-55
2023/06/15 03:54:22;;;;;;;12.10;6.10;;;15.00;99.90;;;;;;5009789;28;20112;-55
2023/06/15 03:56:49;;;;;;;9.32;5.15;;;15.00;99.90;;;;;;5010683;28;20531;-54
2023/06/15 03:59:16;;;;;;;7.57;4.47;;;15.10;99.90;;;;;;5009995;28;20264;-54
2023/06/15 04:01:44;;;;;;;8.80;5.03;;;15.10;99.90;;;;;;5009632;28;20285;-54
2023/06/15 04:04:14;;;;;;;12.70;5.18;;;15.10;99.90;;;;;;5008927;28;20300;-55
2023/06/15 04:06:46;;;;;;;8.65;5.30;;;15.00;99.90;;;;;;5010705;28;20088;-53
2023/06/15 04:09:17;;;;;;;11.52;5.32;;;15.00;99.90;;;;;;5010600;28;20048;-55
2023/06/15 04:11:43;;;;;;;8.75;4.80;;;14.90;99.90;;;;;;5007476;28;20121;-56
2023/06/15 04:14:11;;;;;;;8.93;5.13;;;14.90;99.90;;;;;;5010281;28;20049;-55
2023/06/15 04:16:38;;;;;;;14.00;5.15;;;14.90;99.90;;;;;;5009183;28;20038;-53
2023/06/15 04:19:07;;;;;;;10.13;4.68;;;14.90;99.90;;;;;;5008878;28;20046;-55
2023/06/15 04:21:33;;;;;;;9.15;5.03;;;14.90;99.90;;;;;;5008852;28;20052;-55
2023/06/15 04:24:00;;;;;;;11.77;5.82;;;14.80;99.90;;;;;;5005186;28;20038;-54
2023/06/15 04:26:28;;;;;;;13.60;5.15;;;14.70;99.90;;;;;;5009896;28;20086;-53
2023/06/15 04:28:57;;;;;;;20.00;6.15;;;14.70;99.90;;;;;;5010594;28;20078;-54
2023/06/15 04:31:24;;;;;;;11.73;5.45;;;14.80;99.90;;;;;;5010358;28;20076;-55
2023/06/15 04:33:52;;;;;;;7.78;4.97;;;14.80;99.90;;;;;;5007017;28;20073;-55
2023/06/15 04:36:21;;;;;;;7.65;4.70;;;14.80;99.90;;;;;;5010383;28;20073;-55
2023/06/15 04:38:48;;;;;;;7.10;4.75;;;14.80;99.90;;;;;;5010130;28;20042;-52
2023/06/15 04:41:18;;;;;;;13.13;4.80;;;14.90;99.90;;;;;;5009836;28;20058;-52
2023/06/15 04:43:45;;;;;;;9.63;4.57;;;14.90;99.90;;;;;;5010105;28;20042;-55
2023/06/15 04:46:12;;;;;;;14.23;5.47;;;14.90;99.90;;;;;;5009738;28;20524;-54
2023/06/15 04:48:43;;;;;;;9.48;5.30;;;14.90;99.90;;;;;;5010409;28;20047;-53
2023/06/15 04:51:11;;;;;;;8.63;5.07;;;14.90;99.90;;;;;;5009727;28;20428;-54
2023/06/15 04:53:45;;;;;;;6.65;4.45;;;15.00;99.90;;;;;;4998866;28;20042;-56
2023/06/15 04:56:13;;;;;;;14.63;4.80;;;15.00;99.90;;;;;;5009481;28;20413;-51
2023/06/15 04:58:40;;;;;;;12.35;6.03;;;15.00;99.90;;;;;;5009266;28;20118;-57
2023/06/15 05:01:07;;;;;;;8.85;5.25;;;15.20;99.90;;;;;;5009733;28;20064;-55
2023/06/15 05:03:34;;;;;;;10.73;4.15;;;15.40;99.90;;;;;;5010143;28;20049;-55
2023/06/15 05:06:01;;;;;;;10.65;4.85;;;15.60;99.90;;;;;;5009930;28;20080;-55
2023/06/15 05:08:28;;;;;;;11.18;4.88;;;15.70;99.90;;;;;;5009404;28;20522;-55
2023/06/15 05:10:56;;;;;;;14.85;5.38;;;15.80;99.90;;;;;;5004353;28;20414;-54
2023/06/15 05:13:23;;;;;;;14.20;5.30;;;15.90;99.90;;;;;;4993298;28;20050;-54
2023/06/15 05:15:50;;;;;;;9.98;4.57;;;15.90;99.90;;;;;;5009192;28;20733;-54
2023/06/15 05:18:21;;;;;;;11.00;4.80;;;16.00;99.90;;;;;;5006419;28;20038;-53
2023/06/15 05:20:48;;;;;;;12.80;5.03;;;16.10;99.90;;;;;;5009229;28;20046;-54
2023/06/15 05:23:15;;;;;;;10.30;4.40;;;16.20;99.90;;;;;;5009742;28;20038;-53
2023/06/15 05:25:42;;;;;;;11.82;4.93;;;16.30;99.90;;;;;;5009096;28;20136;-54
2023/06/15 05:28:09;;;;;;;10.98;5.50;;;16.30;99.90;;;;;;5009551;28;20046;-59
2023/06/15 05:30:36;;;;;;;14.00;5.55;;;16.30;99.90;;;;;;5008936;28;20544;-52
2023/06/15 05:33:02;;;;;;;14.20;4.63;;;16.40;99.90;;;;;;5009888;28;20108;-56
2023/06/15 05:35:30;;;;;;;14.60;6.05;;;16.40;99.90;;;;;;4999131;28;20054;-55
2023/06/15 05:37:57;;;;;;;13.70;5.90;;;16.40;99.90;;;;;;5006940;28;20042;-56
2023/06/15 05:40:24;;;;;;;16.85;6.18;;;16.50;99.90;;;;;;5009389;28;20060;-56
2023/06/15 05:42:51;;;;;;;13.73;6.28;;;16.40;99.90;;;;;;5010148;28;20064;-54
2023/06/15 05:45:18;;;;;;;11.05;5.78;;;16.50;99.90;;;;;;5011238;28;20050;-52
2023/06/15 05:47:45;;;;;;;12.35;5.40;;;16.50;99.90;;;;;;5008940;28;20104;-55
2023/06/15 05:50:12;;;;;;;31.60;5.63;;;16.70;99.90;;;;;;5008638;28;20486;-53
2023/06/15 05:52:39;;;;;;;13.23;4.80;;;16.70;99.90;;;;;;5008439;28;20121;-54
2023/06/15 05:55:07;;;;;;;23.27;5.32;;;16.80;99.90;;;;;;5008518;28;20046;-55
2023/06/15 05:57:34;;;;;;;11.55;4.60;;;16.80;99.90;;;;;;5008363;28;20045;-52
2023/06/15 06:00:03;;;;;;;22.70;5.80;;;16.90;99.90;;;;;;5008701;28;20081;-53
2023/06/15 06:02:31;;;;;;;22.08;5.97;;;16.90;99.90;;;;;;5008232;28;20046;-55
2023/06/15 06:04:58;;;;;;;16.73;5.65;;;17.00;99.90;;;;;;5008538;28;20477;-53
2023/06/15 06:07:24;;;;;;;28.23;5.68;;;17.10;99.90;;;;;;5001937;28;20081;-55
2023/06/15 06:09:51;;;;;;;14.13;5.13;;;17.20;99.90;;;;;;5008053;28;20054;-54
2023/06/15 06:12:18;;;;;;;19.63;4.88;;;17.20;99.90;;;;;;5008007;28;20050;-55
2023/06/15 06:14:45;;;;;;;19.35;4.50;;;17.30;99.90;;;;;;5008696;28;20409;-57
2023/06/15 06:17:12;;;;;;;16.45;5.13;;;17.40;99.90;;;;;;5008107;28;20042;-57
2023/06/15 06:19:59;;;;;;;9.07;4.22;;;17.50;99.90;;;;;;5007475;28;20089;-55
2023/06/15 06:22:26;;;;;;;16.88;4.75;;;17.50;99.90;;;;;;5007785;28;20572;-55
2023/06/15 06:24:53;;;;;;;10.98;5.15;;;17.50;99.90;;;;;;5008964;28;20050;-57
2023/06/15 06:27:19;;;;;;;18.98;5.25;;;17.60;99.90;;;;;;5008069;28;20249;-54
2023/06/15 06:29:46;;;;;;;19.27;5.78;;;17.70;99.90;;;;;;5008945;28;20054;-56
2023/06/15 06:32:13;;;;;;;24.98;6.32;;;17.80;99.90;;;;;;5007811;28;20511;-53
2023/06/15 06:34:40;;;;;;;14.07;5.90;;;17.70;99.90;;;;;;5008365;28;20136;-58
2023/06/15 06:37:08;;;;;;;19.38;5.60;;;17.80;99.90;;;;;;5007646;28;20054;-58
2023/06/15 06:39:34;;;;;;;19.40;5.93;;;17.90;99.90;;;;;;5008637;28;20076;-58
2023/06/15 06:42:02;;;;;;;13.40;4.85;;;17.90;99.90;;;;;;5007812;28;20048;-57
2023/06/15 06:44:29;;;;;;;13.70;5.65;;;17.90;99.90;;;;;;5007612;28;20128;-58
2023/06/15 06:46:56;;;;;;;12.38;5.30;;;18.00;99.90;;;;;;5006721;28;20537;-58
2023/06/15 06:49:23;;;;;;;19.38;5.30;;;18.00;99.90;;;;;;5005288;28;20354;-59
2023/06/15 06:51:50;;;;;;;14.05;4.63;;;18.00;99.90;;;;;;5002719;28;20833;-57
2023/06/15 06:54:16;;;;;;;15.07;4.75;;;18.10;99.90;;;;;;5006398;28;20042;-58
2023/06/15 06:56:43;;;;;;;14.45;5.50;;;18.10;99.90;;;;;;5006532;28;20063;-57
2023/06/15 06:59:10;;;;;;;9.00;5.15;;;18.10;99.90;;;;;;5005992;28;20042;-59
2023/06/15 07:01:37;;;;;;;15.98;4.95;;;18.10;99.90;;;;;;5005167;28;20057;-56
2023/06/15 07:04:04;;;;;;;18.67;5.32;;;18.10;99.90;;;;;;5007081;28;20477;-53
2023/06/15 07:06:32;;;;;;;15.60;5.40;;;18.20;99.90;;;;;;5006555;28;20081;-56
2023/06/15 07:08:59;;;;;;;12.88;5.38;;;18.20;99.90;;;;;;5004492;28;20365;-57
2023/06/15 07:11:26;;;;;;;12.05;5.57;;;18.20;99.90;;;;;;5006769;28;20332;-56
2023/06/15 07:13:53;;;;;;;14.75;5.47;;;18.20;99.90;;;;;;5006895;28;20454;-57
2023/06/15 07:16:20;;;;;;;12.95;5.20;;;18.30;99.90;;;;;;5007039;28;20049;-57
2023/06/15 07:18:47;;;;;;;17.45;5.68;;;18.40;99.90;;;;;;5006687;28;20056;-58
2023/06/15 07:21:14;;;;;;;18.13;6.03;;;18.40;99.90;;;;;;5005679;28;20141;-57
2023/06/15 07:23:41;;;;;;;12.77;4.93;;;18.40;99.90;;;;;;5003168;28;20050;-58
2023/06/15 07:26:19;;;;;;;12.57;5.35;;;18.50;99.90;;;;;;5014299;28;20242;-60
2023/06/15 07:28:46;;;;;;;22.27;5.97;;;18.60;99.90;;;;;;5006920;28;20205;-58
2023/06/15 07:31:13;;;;;;;20.63;4.85;;;18.60;99.90;;;;;;5009223;28;20514;-57
2023/06/15 07:33:40;;;;;;;12.30;4.93;;;18.60;99.90;;;;;;5006982;28;20539;-55
2023/06/15 07:36:07;;;;;;;13.02;5.32;;;18.70;99.90;;;;;;5017200;28;20046;-54
2023/06/15 07:38:34;;;;;;;18.33;5.85;;;18.80;99.90;;;;;;5010284;28;20552;-57
2023/06/15 07:41:01;;;;;;;17.15;5.53;;;18.90;99.90;;;;;;5006921;28;20049;-56
2023/06/15 07:43:27;;;;;;;17.67;5.78;;;19.00;99.90;;;;;;5011908;28;20053;-58
2023/06/15 07:45:54;;;;;;;13.50;4.97;;;19.10;99.90;;;;;;5007546;28;20148;-57
2023/06/15 07:48:21;;;;;;;16.55;4.80;;;19.00;99.90;;;;;;5014909;28;20108;-58
2023/06/15 07:50:48;;;;;;;18.77;6.00;;;19.10;99.90;;;;;;5016255;28;20046;-58
2023/06/15 07:53:15;;;;;;;18.50;5.00;;;19.20;99.90;;;;;;5012383;28;20045;-59
2023/06/15 07:55:44;;;;;;;15.52;5.07;;;19.20;99.90;;;;;;5011135;28;20875;-57
2023/06/15 07:58:11;;;;;;;14.85;5.15;;;19.30;99.90;;;;;;4995033;28;20043;-58
2023/06/15 08:00:37;;;;;;;13.02;4.90;;;19.40;99.90;;;;;;5012761;28;20054;-57
2023/06/15 08:03:04;;;;;;;14.70;4.88;;;19.50;99.90;;;;;;5015291;28;20042;-58
2023/06/15 08:05:31;;;;;;;14.50;5.07;;;19.50;99.90;;;;;;5006854;28;20050;-58
2023/06/15 08:07:58;;;;;;;12.18;4.82;;;19.50;99.90;;;;;;5006038;28;20408;-59
2023/06/15 08:10:25;;;;;;;15.07;5.05;;;19.50;99.90;;;;;;5005137;28;20630;-56
2023/06/15 08:12:52;;;;;;;18.83;5.78;;;19.60;99.90;;;;;;5005457;28;20053;-58
2023/06/15 08:15:19;;;;;;;19.10;5.82;;;19.70;99.90;;;;;;5005114;28;20336;-57
2023/06/15 08:17:46;;;;;;;15.05;6.47;;;19.80;99.90;;;;;;5008311;28;20055;-57
2023/06/15 08:20:13;;;;;;;18.58;7.90;;;19.90;99.90;;;;;;5013573;28;20129;-58
2023/06/15 08:22:40;;;;;;;18.45;6.20;;;19.90;99.90;;;;;;5005151;28;20382;-58
2023/06/15 08:25:08;;;;;;;12.10;5.53;;;20.00;99.90;;;;;;5010285;28;20104;-58
2023/06/15 08:27:35;;;;;;;13.10;5.97;;;20.10;99.90;;;;;;5007634;28;20058;-58
2023/06/15 08:30:02;;;;;;;17.77;6.93;;;20.10;99.90;;;;;;5007967;28;20044;-58
2023/06/15 08:32:29;;;;;;;18.50;6.95;;;20.20;99.90;;;;;;5009495;28;20085;-58
2023/06/15 08:34:56;;;;;;;14.32;6.47;;;20.30;99.90;;;;;;5013799;28;20054;-58
2023/06/15 08:37:24;;;;;;;18.13;6.50;;;20.50;99.90;;;;;;5005519;28;20489;-58
2023/06/15 08:39:51;;;;;;;13.43;6.50;;;20.50;99.90;;;;;;5018638;28;20056;-59
2023/06/15 08:42:25;;;;;;;16.90;5.78;;;20.50;99.90;;;;;;5012647;28;20057;-58
2023/06/15 08:44:54;;;;;;;15.00;6.50;;;20.50;99.90;;;;;;5002358;28;20049;-58
2023/06/15 08:47:21;;;;;;;14.25;5.28;;;20.70;99.90;;;;;;5015367;28;20047;-60
2023/06/15 08:49:49;;;;;;;15.48;5.72;;;20.80;99.90;;;;;;4992414;28;20252;-58
2023/06/15 08:52:16;;;;;;;13.98;4.43;;;20.70;99.90;;;;;;5009033;28;20057;-58
2023/06/15 08:54:42;;;;;;;15.82;5.05;;;20.80;99.90;;;;;;4999688;28;20038;-58
2023/06/15 08:57:09;;;;;;;15.18;4.75;;;20.90;99.90;;;;;;4981002;28;20058;-60
2023/06/15 08:59:36;;;;;;;17.55;5.47;;;20.90;99.90;;;;;;5008995;28;20530;-57
2023/06/15 09:02:06;;;;;;;11.55;4.78;;;21.00;99.90;;;;;;4995724;28;20038;-59
2023/06/15 09:04:32;;;;;;;13.40;4.13;;;21.10;99.90;;;;;;5014459;28;20579;-57
2023/06/15 09:07:00;;;;;;;13.75;4.43;;;21.30;99.90;;;;;;5010701;28;20412;-56
2023/06/15 09:09:27;;;;;;;16.45;4.38;;;21.40;99.90;;;;;;5020836;28;20046;-56
2023/06/15 09:11:53;;;;;;;13.68;4.30;;;21.50;99.90;;;;;;5016866;28;20132;-58
2023/06/15 09:14:20;;;;;;;12.88;3.85;;;21.60;99.90;;;;;;5000513;28;20500;-59
2023/06/15 09:16:48;;;;;;;20.75;4.45;;;21.70;99.90;;;;;;5016240;28;20053;-59
2023/06/15 09:19:16;;;;;;;14.60;4.22;;;21.80;99.90;;;;;;4998206;28;20053;-58
2023/06/15 09:21:51;;;;;;;12.40;4.50;;;21.90;99.90;;;;;;5001004;28;20382;-58
2023/06/15 09:24:22;;;;;;;15.63;4.53;;;22.00;99.90;;;;;;5007973;28;20060;-56
2023/06/15 09:26:50;;;;;;;16.77;5.18;;;22.10;99.90;;;;;;4998571;28;20045;-58
2023/06/15 09:29:17;;;;;;;18.60;4.90;;;22.20;99.90;;;;;;5013617;28;20050;-58
2023/06/15 09:31:44;;;;;;;21.63;5.45;;;22.30;99.90;;;;;;5012361;28;20452;-56
2023/06/15 09:34:12;;;;;;;14.45;4.35;;;22.50;99.90;;;;;;5016923;28;20064;-56
2023/06/15 09:36:39;;;;;;;14.73;3.95;;;22.50;99.90;;;;;;5017365;28;20056;-55
2023/06/15 09:39:08;;;;;;;15.15;4.43;;;22.50;99.90;;;;;;5012826;28;20354;-56
2023/06/15 09:41:41;;;;;;;19.90;4.90;;;22.60;99.90;;;;;;5013102;28;20054;-57
2023/06/15 09:44:09;;;;;;;11.90;4.55;;;22.70;99.90;;;;;;4981563;28;20042;-59
2023/06/15 09:46:38;;;;;;;16.08;5.03;;;22.80;99.90;;;;;;4988479;28;20066;-57
2023/06/15 09:49:23;;;;;;;18.30;4.35;;;22.90;99.90;;;;;;4996367;28;20446;-57
2023/06/15 09:51:50;;;;;;;10.15;4.75;;;22.90;99.90;;;;;;4999022;28;20050;-59
2023/06/15 09:54:19;;;;;;;11.85;4.13;;;23.00;99.90;;;;;;5015413;28;20417;-58
2023/06/15 09:56:47;;;;;;;10.10;4.10;;;23.10;99.90;;;;;;5018013;28;20045;-58
2023/06/15 09:59:14;;;;;;;10.35;4.30;;;23.40;99.90;;;;;;4997687;28;20038;-59
2023/06/15 10:01:42;;;;;;;15.02;4.40;;;23.40;99.90;;;;;;4990921;28;20250;-58
2023/06/15 10:04:09;;;;;;;16.52;4.38;;;23.60;99.70;;;;;;4980942;28;20480;-59
2023/06/15 10:06:39;;;;;;;11.05;3.85;;;23.70;99.90;;;;;;4996281;28;20563;-59
2023/06/15 10:09:07;;;;;;;10.38;3.63;;;23.80;99.40;;;;;;4996543;28;20570;-59
2023/06/15 10:11:39;;;;;;;15.25;3.53;;;23.90;98.90;;;;;;5007174;28;20050;-58
2023/06/15 10:14:14;;;;;;;13.43;3.65;;;24.20;98.10;;;;;;4997509;28;20081;-62
2023/06/15 10:16:41;;;;;;;9.98;3.70;;;24.60;97.40;;;;;;4992364;28;20355;-58
2023/06/15 10:19:11;;;;;;;9.70;4.07;;;24.90;98.00;;;;;;5001804;28;20515;-59
2023/06/15 10:21:40;;;;;;;6.85;3.45;;;25.30;96.70;;;;;;5010509;28;20151;-59
2023/06/15 10:24:16;;;;;;;16.23;3.50;;;25.50;94.10;;;;;;4998873;28;20064;-59
2023/06/15 10:26:43;;;;;;;10.73;4.00;;;25.80;93.60;;;;;;4993619;28;20046;-58
2023/06/15 10:29:37;;;;;;;8.48;3.13;;;26.00;94.90;;;;;;5012005;28;20133;-59
2023/06/15 10:32:14;;;;;;;8.17;2.83;;;26.30;93.20;;;;;;5016386;28;20041;-59
2023/06/15 10:34:48;;;;;;;11.93;2.75;;;26.70;92.30;;;;;;4998361;28;20053;-59
2023/06/15 10:37:47;;;;;;;13.32;2.80;;;26.90;91.90;;;;;;5000542;28;20073;-59
2023/06/15 10:40:22;;;;;;;7.45;3.13;;;27.10;86.40;;;;;;4991602;28;20496;-59
2023/06/15 10:42:49;;;;;;;5.68;2.85;;;27.10;87.30;;;;;;5001803;28;20077;-57
2023/06/15 10:45:34;;;;;;;8.13;3.00;;;27.20;89.20;;;;;;5006958;28;20137;-59
2023/06/15 10:48:02;;;;;;;8.98;3.20;;;27.30;82.80;;;;;;4992888;28;20532;-60
2023/06/15 10:50:37;;;;;;;14.10;3.72;;;27.50;86.40;;;;;;5003791;28;20041;-59
2023/06/15 10:53:04;;;;;;;12.02;2.95;;;27.60;80.30;;;;;;5007876;28;20046;-60
2023/06/15 10:55:31;;;;;;;7.05;2.35;;;27.60;84.40;;;;;;5011586;28;20558;-59
2023/06/15 10:58:16;;;;;;;11.55;3.80;;;27.60;83.20;;;;;;4978746;28;20452;-59
2023/06/15 11:00:44;;;;;;;9.38;2.83;;;27.40;78.70;;;;;;5006290;28;20056;-59
2023/06/15 11:03:26;;;;;;;21.83;3.30;;;27.30;81.00;;;;;;5007272;28;20042;-58
2023/06/15 11:06:07;;;;;;;8.40;2.70;;;27.00;78.10;;;;;;4994117;28;20046;-59
2023/06/15 11:08:46;;;;;;;7.57;2.83;;;26.70;75.90;;;;;;5004659;28;20046;-58
2023/06/15 11:11:14;;;;;;;9.23;2.70;;;26.50;76.60;;;;;;5006104;28;20513;-60
2023/06/15 11:14:02;;;;;;;8.98;3.00;;;26.40;79.70;;;;;;5005486;28;20428;-58
2023/06/15 11:16:34;;;;;;;17.35;3.60;;;26.30;78.10;;;;;;5007357;28;20488;-57
2023/06/15 11:19:10;;;;;;;8.07;2.63;;;26.30;80.20;;;;;;5012373;28;20045;-59
2023/06/15 11:21:40;;;;;;;12.30;3.13;;;26.30;78.50;;;;;;5009973;28;20559;-58
2023/06/15 11:24:07;;;;;;;6.43;3.63;;;26.20;78.50;;;;;;5010452;28;20417;-57
2023/06/15 11:26:38;;;;;;;6.00;2.55;;;26.20;79.20;;;;;;5006566;28;20054;-58
2023/06/15 11:29:08;;;;;;;7.13;3.00;;;26.20;77.60;;;;;;4990201;28;20041;-59
2023/06/15 11:31:35;;;;;;;10.23;2.70;;;26.30;77.90;;;;;;5006487;28;20520;-58
2023/06/15 11:34:02;;;;;;;7.03;3.08;;;26.30;76.00;;;;;;5012106;28;20111;-60
2023/06/15 11:36:29;;;;;;;13.80;2.45;;;26.20;75.50;;;;;;5013850;28;20068;-59
2023/06/15 11:38:56;;;;;;;11.05;2.97;;;26.30;75.50;;;;;;5006918;28;20124;-59
2023/06/15 11:41:22;;;;;;;8.90;2.45;;;26.30;75.20;;;;;;4661548;28;10000928;-58
2023/06/15 11:43:49;;;;;;;5.47;2.30;;;26.40;74.90;;;;;;4967114;28;20257;-58
2023/06/15 11:46:20;;;;;;;4.55;2.20;;;26.40;74.60;;;;;;5003128;28;20058;-57
2023/06/15 11:48:48;;;;;;;4.47;2.20;;;26.40;74.10;;;;;;4999630;28;20050;-59
2023/06/15 11:51:17;;;;;;;7.20;3.00;;;26.30;73.80;;;;;;5004605;28;20046;-59
2023/06/15 11:53:46;;;;;;;3.58;1.92;;;26.40;74.60;;;;;;5003395;28;20242;-59
2023/06/15 11:56:14;;;;;;;10.07;2.67;;;26.50;75.00;;;;;;5003684;28;20058;-58
2023/06/15 11:58:41;;;;;;;7.88;2.33;;;26.50;71.40;;;;;;4980926;28;20042;-59
2023/06/15 12:01:11;;;;;;;9.57;2.35;;;26.50;72.20;;;;;;5004981;28;20050;-58
2023/06/15 12:03:40;;;;;;;6.10;2.92;;;26.50;73.50;;;;;;5007708;28;20051;-58
2023/06/15 12:06:26;;;;;;;16.05;3.28;;;26.50;73.70;;;;;;5006289;28;20544;-58
2023/06/15 12:08:56;;;;;;;6.90;2.47;;;26.50;73.70;;;;;;4994192;28;20045;-57
2023/06/15 12:11:23;;;;;;;6.47;2.58;;;26.70;74.90;;;;;;4996653;28;20045;-55
2023/06/15 12:13:50;;;;;;;4.80;2.33;;;26.90;74.50;;;;;;5007256;28;20045;-58
2023/06/15 12:16:18;;;;;;;10.23;2.88;;;26.90;73.60;;;;;;5007928;28;20057;-58
2023/06/15 12:18:53;;;;;;;6.15;2.83;;;27.00;73.70;;;;;;5006227;28;20046;-58
2023/06/15 12:21:20;;;;;;;5.80;2.75;;;26.90;70.70;;;;;;4997348;28;20111;-53
2023/06/15 12:23:49;;;;;;;8.60;2.60;;;26.50;71.70;;;;;;5006880;28;20045;-59
2023/06/15 12:26:17;;;;;;;15.38;2.22;;;26.40;72.40;;;;;;5007144;28;20133;-57
2023/06/15 12:28:50;;;;;;;8.68;2.67;;;26.50;72.60;;;;;;4995311;28;20057;-57
2023/06/15 12:31:17;;;;;;;14.40;3.35;;;26.70;72.10;;;;;;5006569;28;20052;-58
2023/06/15 12:33:49;;;;;;;8.80;3.10;;;26.80;72.30;;;;;;5003793;28;20540;-58
2023/06/15 12:36:19;;;;;;;9.73;2.45;;;26.90;71.50;;;;;;5003922;28;20054;-57
2023/06/15 12:38:48;;;;;;;13.50;2.55;;;27.00;72.20;;;;;;4989868;28;20108;-58
2023/06/15 12:41:16;;;;;;;6.10;2.10;;;27.10;71.30;;;;;;4988401;28;20053;-58
2023/06/15 12:43:45;;;;;;;6.75;2.80;;;27.30;72.10;;;;;;5006423;28;20054;-58
2023/06/15 12:46:12;;;;;;;14.77;2.50;;;27.40;71.70;;;;;;5006548;28;20057;-58
2023/06/15 12:48:39;;;;;;;12.80;3.00;;;27.50;72.50;;;;;;5006446;28;20046;-57